createdAt,value
2023-03-22T00:00:15.159Z,1.98
2023-03-22T00:02:43.653Z,2.22
2023-03-22T00:05:12.128Z,2.55
2023-03-22T00:07:41.429Z,2.60
2023-03-22T00:10:10.687Z,2.67
2023-03-22T00:12:39.047Z,2.78
2023-03-22T00:15:09.443Z,2.60
2023-03-22T00:17:39.290Z,2.90
2023-03-22T00:20:09.183Z,2.70
2023-03-22T00:22:37.642Z,2.45
2023-03-22T00:25:07.337Z,2.80
2023-03-22T00:27:35.830Z,2.50
2023-03-22T00:30:04.801Z,2.42
2023-03-22T00:32:36.314Z,2.13
2023-03-22T00:35:07.937Z,3.00
2023-03-22T00:37:38.718Z,2.78
2023-03-22T00:40:09.858Z,2.70
2023-03-22T00:42:38.883Z,3.13
2023-03-22T00:45:12.086Z,2.90
2023-03-22T00:47:40.836Z,2.75
2023-03-22T00:50:11.648Z,2.80
2023-03-22T00:52:40.051Z,2.70
2023-03-22T00:55:09.105Z,2.65
2023-03-22T00:57:37.842Z,2.40
2023-03-22T01:00:11.011Z,2.80
2023-03-22T01:02:40.223Z,2.30
2023-03-22T01:05:15.660Z,2.70
2023-03-22T01:07:44.830Z,2.58
2023-03-22T01:10:13.694Z,2.50
2023-03-22T01:12:42.741Z,2.30
2023-03-22T01:15:12.495Z,2.22
2023-03-22T01:17:41.079Z,2.58
2023-03-22T01:20:11.112Z,2.50
2023-03-22T01:22:41.660Z,2.78
2023-03-22T01:25:11.216Z,2.50
2023-03-22T01:27:39.736Z,2.63
2023-03-22T01:30:09.568Z,2.15
2023-03-22T01:32:38.415Z,2.60
2023-03-22T01:35:08.023Z,2.50
2023-03-22T01:37:37.309Z,2.92
2023-03-22T01:40:09.289Z,2.90
2023-03-22T01:42:37.681Z,2.92
2023-03-22T01:45:40.110Z,2.72
2023-03-22T01:48:29.221Z,2.45
2023-03-22T01:51:07.181Z,2.60
2023-03-22T01:53:43.914Z,2.72
2023-03-22T01:56:14.605Z,2.75
2023-03-22T01:58:43.798Z,2.60
2023-03-22T02:01:14.364Z,2.75
2023-03-22T02:03:54.531Z,2.70
2023-03-22T02:06:24.882Z,3.20
2023-03-22T02:09:01.169Z,2.92
2023-03-22T02:11:35.662Z,3.00
2023-03-22T02:14:19.999Z,3.35
2023-03-22T02:17:20.754Z,3.00
2023-03-22T02:20:39.978Z,3.40
2023-03-22T02:23:32.601Z,3.20
2023-03-22T02:26:35.966Z,3.10
2023-03-22T02:29:12.701Z,3.10
2023-03-22T02:31:59.390Z,3.30
2023-03-22T02:35:03.317Z,3.10
2023-03-22T02:38:02.305Z,3.00
2023-03-22T02:40:37.322Z,3.17
2023-03-22T02:43:13.862Z,3.30
2023-03-22T02:45:49.040Z,3.10
2023-03-22T02:48:23.064Z,3.28
2023-03-22T02:50:55.705Z,3.88
2023-03-22T02:53:29.153Z,4.00
2023-03-22T02:56:03.957Z,3.70
2023-03-22T02:58:37.252Z,4.93
2023-03-22T03:01:08.802Z,4.07
2023-03-22T03:03:39.690Z,4.22
2023-03-22T03:06:12.543Z,4.03
2023-03-22T03:08:42.277Z,4.28
2023-03-22T03:11:12.527Z,3.90
2023-03-22T03:13:41.039Z,3.80
2023-03-22T03:16:17.578Z,3.72
2023-03-22T03:18:52.440Z,3.97
2023-03-22T03:21:30.008Z,4.20
2023-03-22T03:24:06.984Z,3.50
2023-03-22T03:26:44.566Z,4.00
2023-03-22T03:29:19.264Z,4.18
2023-03-22T03:31:54.623Z,4.72
2023-03-22T03:34:27.336Z,4.10
2023-03-22T03:37:01.061Z,4.10
2023-03-22T03:39:34.152Z,4.50
2023-03-22T03:42:06.119Z,3.95
2023-03-22T03:44:37.246Z,4.47
2023-03-22T03:47:08.497Z,4.22
2023-03-22T03:49:37.188Z,4.60
2023-03-22T03:52:07.147Z,4.82
2023-03-22T03:54:35.880Z,4.45
2023-03-22T03:57:08.091Z,4.40
2023-03-22T03:59:39.105Z,4.70
2023-03-22T04:02:15.003Z,4.72
2023-03-22T04:04:43.745Z,4.10
2023-03-22T04:07:12.291Z,4.65
2023-03-22T04:09:41.489Z,5.05
2023-03-22T04:12:37.484Z,5.03
2023-03-22T04:15:14.650Z,3.97
2023-03-22T04:17:46.555Z,4.25
2023-03-22T04:20:16.496Z,4.60
2023-03-22T04:22:46.847Z,4.00
2023-03-22T04:25:18.238Z,4.25
2023-03-22T04:28:00.545Z,4.30
2023-03-22T04:30:30.807Z,4.28
2023-03-22T04:32:59.235Z,4.63
2023-03-22T04:35:40.932Z,4.47
2023-03-22T04:38:09.866Z,4.38
2023-03-22T04:40:39.242Z,4.30
2023-03-22T04:43:15.683Z,4.38
2023-03-22T04:45:58.382Z,4.65
2023-03-22T04:48:33.207Z,4.47
2023-03-22T04:51:04.212Z,4.35
2023-03-22T04:53:39.427Z,4.80
2023-03-22T04:56:11.823Z,4.00
2023-03-22T04:58:43.764Z,4.45
2023-03-22T05:01:14.197Z,4.85
2023-03-22T05:03:47.378Z,4.32
2023-03-22T05:06:18.489Z,4.38
2023-03-22T05:08:56.588Z,4.15
2023-03-22T05:11:27.804Z,4.20
2023-03-22T05:14:32.873Z,3.67
2023-03-22T05:17:01.691Z,3.80
2023-03-22T05:19:30.567Z,4.10
2023-03-22T05:22:02.091Z,3.80
2023-03-22T05:24:51.280Z,4.47
2023-03-22T05:27:31.372Z,4.07
2023-03-22T05:30:20.284Z,5.10
2023-03-22T05:32:59.726Z,3.75
2023-03-22T05:35:28.382Z,4.20
2023-03-22T05:37:58.637Z,4.22
2023-03-22T05:40:29.787Z,4.65
2023-03-22T05:42:58.370Z,3.83
2023-03-22T05:45:31.712Z,3.92
2023-03-22T05:48:18.629Z,4.68
2023-03-22T05:50:47.323Z,4.18
2023-03-22T05:53:16.327Z,4.82
2023-03-22T05:55:50.328Z,4.65
2023-03-22T05:58:19.159Z,3.83
2023-03-22T06:00:51.429Z,5.30
2023-03-22T06:03:22.996Z,4.10
2023-03-22T06:05:57.302Z,4.78
2023-03-22T06:08:40.424Z,5.20
2023-03-22T06:11:09.732Z,4.85
2023-03-22T06:13:38.786Z,4.32
2023-03-22T06:16:09.857Z,4.57
2023-03-22T06:18:38.288Z,4.60
2023-03-22T06:21:11.616Z,4.82
2023-03-22T06:23:40.037Z,5.25
2023-03-22T06:26:11.381Z,5.03
2023-03-22T06:28:40.351Z,5.57
2023-03-22T06:31:11.414Z,5.10
2023-03-22T06:33:48.611Z,5.30
2023-03-22T06:36:26.461Z,5.18
2023-03-22T06:39:15.953Z,5.28
2023-03-22T06:41:46.695Z,4.93
2023-03-22T06:44:16.107Z,5.38
2023-03-22T06:47:06.181Z,5.30
2023-03-22T06:49:55.251Z,5.50
2023-03-22T06:52:27.543Z,4.75
2023-03-22T06:54:57.209Z,4.82
2023-03-22T06:57:26.383Z,4.65
2023-03-22T06:59:54.873Z,4.72
2023-03-22T07:02:24.710Z,5.03
2023-03-22T07:05:19.401Z,5.10
2023-03-22T07:07:47.978Z,5.28
2023-03-22T07:10:16.556Z,4.57
2023-03-22T07:12:45.137Z,4.78
2023-03-22T07:15:17.422Z,4.72
2023-03-22T07:18:08.518Z,4.32
2023-03-22T07:20:40.800Z,4.35
2023-03-22T07:23:10.732Z,4.22
2023-03-22T07:25:47.652Z,4.00
2023-03-22T07:28:29.402Z,3.85
2023-03-22T07:31:03.012Z,4.65
2023-03-22T07:33:39.114Z,3.60
2023-03-22T07:36:09.632Z,3.75
2023-03-22T07:38:38.403Z,3.88
2023-03-22T07:41:11.066Z,3.97
2023-03-22T07:44:07.755Z,3.92
2023-03-22T07:46:48.201Z,4.10
2023-03-22T07:49:25.339Z,4.20
2023-03-22T07:52:07.830Z,4.00
2023-03-22T07:54:36.325Z,4.38
2023-03-22T07:57:08.606Z,4.03
2023-03-22T07:59:43.513Z,4.10
2023-03-22T08:02:12.348Z,3.92
2023-03-22T08:04:51.849Z,3.80
2023-03-22T08:07:31.620Z,3.20
2023-03-22T08:10:00.430Z,3.35
2023-03-22T08:12:29.144Z,2.90
2023-03-22T08:15:08.165Z,2.72
2023-03-22T08:17:37.181Z,2.80
2023-03-22T08:20:10.649Z,2.70
2023-03-22T08:22:47.400Z,2.20
2023-03-22T08:25:33.824Z,1.88
2023-03-22T08:28:09.200Z,1.85
2023-03-22T08:30:38.859Z,1.58
2023-03-22T08:33:07.575Z,2.00
2023-03-22T08:35:37.864Z,1.67
2023-03-22T08:38:06.520Z,1.58
2023-03-22T08:40:42.897Z,1.60
2023-03-22T08:43:11.421Z,1.60
2023-03-22T08:45:40.229Z,1.38
2023-03-22T08:48:16.653Z,1.23
2023-03-22T08:51:02.129Z,1.60
2023-03-22T08:53:40.561Z,1.15
2023-03-22T08:56:32.433Z,1.50
2023-03-22T08:59:12.815Z,1.30
2023-03-22T09:01:55.782Z,1.45
2023-03-22T09:04:24.362Z,1.40
2023-03-22T09:06:54.259Z,1.20
2023-03-22T09:09:22.735Z,1.63
2023-03-22T09:11:54.190Z,1.50
2023-03-22T09:14:22.808Z,1.48
2023-03-22T09:16:51.847Z,1.60
2023-03-22T09:19:20.786Z,1.27
2023-03-22T09:21:50.004Z,1.30
2023-03-22T09:24:29.964Z,1.23
2023-03-22T09:27:01.884Z,1.30
2023-03-22T09:29:30.645Z,1.35
2023-03-22T09:32:00.621Z,1.23
2023-03-22T09:34:33.193Z,1.20
2023-03-22T09:37:04.167Z,1.40
2023-03-22T09:39:44.671Z,1.20
2023-03-22T09:42:29.344Z,1.40
2023-03-22T09:45:02.459Z,1.45
2023-03-22T09:47:44.167Z,1.33
2023-03-22T09:50:17.081Z,1.25
2023-03-22T09:52:46.134Z,1.17
2023-03-22T09:55:22.359Z,1.40
2023-03-22T09:57:59.804Z,1.30
2023-03-22T10:00:38.932Z,1.40
2023-03-22T10:03:19.186Z,1.40
2023-03-22T10:05:54.250Z,1.23
2023-03-22T10:08:37.699Z,1.50
2023-03-22T10:11:19.568Z,1.38
2023-03-22T10:13:58.519Z,1.40
2023-03-22T10:16:29.362Z,1.38
2023-03-22T10:19:05.829Z,1.23
2023-03-22T10:21:36.045Z,1.50
2023-03-22T10:24:13.909Z,1.40
2023-03-22T10:26:46.950Z,1.30
2023-03-22T10:29:23.102Z,1.38
2023-03-22T10:31:51.594Z,1.35
2023-03-22T10:34:24.279Z,1.40
2023-03-22T10:36:53.814Z,1.40
2023-03-22T10:39:31.183Z,1.55
2023-03-22T10:42:03.870Z,1.30
2023-03-22T10:44:38.954Z,1.35
2023-03-22T10:47:10.992Z,1.30
2023-03-22T10:49:43.828Z,1.20
2023-03-22T10:52:24.001Z,1.42
2023-03-22T10:54:52.727Z,1.30
2023-03-22T10:57:22.574Z,1.10
2023-03-22T10:59:52.430Z,1.52
2023-03-22T11:02:23.857Z,1.35
2023-03-22T11:04:54.422Z,1.40
2023-03-22T11:07:33.294Z,1.30
2023-03-22T11:10:23.545Z,1.77
2023-03-22T11:12:56.122Z,1.33
2023-03-22T11:15:31.107Z,1.23
2023-03-22T11:18:02.015Z,1.30
2023-03-22T11:20:31.312Z,1.10
2023-03-22T11:23:02.899Z,1.10
2023-03-22T11:25:33.551Z,1.30
2023-03-22T11:28:16.465Z,1.60
2023-03-22T11:31:00.987Z,1.30
2023-03-22T11:33:29.830Z,1.20
2023-03-22T11:35:59.766Z,1.50
2023-03-22T11:38:31.574Z,1.50
2023-03-22T11:41:02.485Z,1.50
2023-03-22T11:43:37.076Z,1.60
2023-03-22T11:48:35.223Z,1.60
2023-03-22T11:51:10.339Z,1.42
2023-03-22T11:53:41.706Z,1.63
2023-03-22T11:56:12.574Z,1.42
2023-03-22T11:58:59.613Z,1.40
2023-03-22T12:01:41.879Z,1.20
2023-03-22T12:04:15.662Z,1.27
2023-03-22T12:06:44.584Z,1.35
2023-03-22T12:09:25.640Z,1.20
2023-03-22T12:11:57.847Z,1.33
2023-03-22T12:14:30.924Z,1.30
2023-03-22T12:17:02.639Z,1.30
2023-03-22T12:19:44.376Z,1.52
2023-03-22T12:22:16.912Z,1.20
2023-03-22T12:24:45.299Z,1.33
2023-03-22T12:27:20.346Z,1.30
2023-03-22T12:29:55.826Z,1.23
2023-03-22T12:32:28.842Z,1.33
2023-03-22T12:35:16.082Z,1.33
2023-03-22T12:37:49.614Z,1.27
2023-03-22T12:40:23.918Z,1.27
2023-03-22T12:43:00.595Z,1.40
2023-03-22T12:45:37.141Z,1.20
2023-03-22T12:48:13.119Z,1.10
2023-03-22T12:50:46.249Z,1.20
2023-03-22T12:53:17.336Z,1.38
2023-03-22T12:55:47.680Z,1.40
2023-03-22T12:58:20.831Z,1.20
2023-03-22T13:00:55.654Z,1.38
2023-03-22T13:03:28.677Z,1.20
2023-03-22T13:06:04.497Z,1.50
2023-03-22T13:09:06.244Z,1.20
2023-03-22T13:11:34.633Z,1.10
2023-03-22T13:14:03.039Z,1.10
2023-03-22T13:16:51.022Z,1.23
2023-03-22T13:19:29.941Z,1.02
2023-03-22T13:22:17.546Z,1.20
2023-03-22T13:25:28.898Z,1.20
2023-03-22T13:27:59.012Z,1.20
2023-03-22T13:30:33.032Z,1.40
2023-03-22T13:33:15.436Z,1.30
2023-03-22T13:35:47.687Z,1.20
2023-03-22T13:38:22.867Z,1.40
2023-03-22T13:40:57.795Z,1.55
2023-03-22T13:43:30.937Z,1.13
2023-03-22T13:46:13.851Z,1.10
2023-03-22T13:48:54.377Z,1.10
2023-03-22T13:51:31.166Z,1.30
2023-03-22T13:54:05.368Z,1.27
2023-03-22T13:56:48.507Z,1.23
2023-03-22T13:59:21.638Z,1.48
2023-03-22T14:01:53.770Z,1.20
2023-03-22T14:04:35.000Z,1.20
2023-03-22T14:07:10.748Z,1.20
2023-03-22T14:09:44.493Z,1.35
2023-03-22T14:12:20.645Z,1.20
2023-03-22T14:14:54.355Z,1.20
2023-03-22T14:17:32.443Z,1.20
2023-03-22T14:20:05.154Z,1.15
